Time;durP1;ratioP1;P1;durP2;ratioP2;P2;SDS_P1;SDS_P2;PMS_P1;PMS_P2;Temp;Humidity;BMP_temperature;BMP_pressure;BME280_temperature;BME280_humidity;BME280_pressure;Samples;Min_cycle;Max_cycle;Signal;HPM_P1;HPM_P2
2022/01/11 00:02:22;;;;;;;;;35.25;27.50;;;;;;;;5019697;28;51078;-47
2022/01/11 00:05:06;;;;;;;;;36.25;29.00;;;;;;;;5019321;28;51100;-44
2022/01/11 00:07:51;;;;;;;;;33.75;30.25;;;;;;;;5019272;28;51146;-45
2022/01/11 00:11:03;;;;;;;;;32.00;30.00;;;;;;;;5019293;28;51049;-47
2022/01/11 00:13:42;;;;;;;;;37.75;32.00;;;;;;;;5003851;28;51121;-45
2022/01/11 00:16:26;;;;;;;;;40.25;30.25;;;;;;;;4999554;28;51065;-47
2022/01/11 00:19:13;;;;;;;;;35.50;29.75;;;;;;;;5019136;28;51072;-45
2022/01/11 00:22:00;;;;;;;;;35.00;30.50;;;;;;;;5018693;28;51480;-48
2022/01/11 00:24:44;;;;;;;;;35.25;26.00;;;;;;;;5019330;28;51217;-46
2022/01/11 00:27:29;;;;;;;;;29.25;25.00;;;;;;;;5019350;28;51184;-46
2022/01/11 00:30:13;;;;;;;;;38.25;30.00;;;;;;;;5018598;28;51574;-46
2022/01/11 00:33:00;;;;;;;;;39.00;32.00;;;;;;;;5019237;28;51095;-46
2022/01/11 00:35:45;;;;;;;;;33.25;30.00;;;;;;;;5019140;28;51443;-45
2022/01/11 00:38:32;;;;;;;;;33.00;27.25;;;;;;;;5019005;28;51880;-46
2022/01/11 00:41:16;;;;;;;;;34.75;30.00;;;;;;;;5018600;28;51081;-45
2022/01/11 00:44:01;;;;;;;;;42.50;29.75;;;;;;;;5019222;28;51104;-43
2022/01/11 00:46:45;;;;;;;;;36.75;29.00;;;;;;;;5018329;28;51592;-44
2022/01/11 00:49:32;;;;;;;;;36.25;30.50;;;;;;;;5018954;28;51363;-45
2022/01/11 00:52:16;;;;;;;;;33.25;29.75;;;;;;;;5019106;28;51152;-45
2022/01/11 00:55:00;;;;;;;;;24.50;18.50;;;;;;;;5018760;28;51180;-45
2022/01/11 00:57:45;;;;;;;;;30.00;28.75;;;;;;;;5019221;28;51128;-43
2022/01/11 01:00:30;;;;;;;;;32.25;29.75;;;;;;;;5018551;28;51483;-46
2022/01/11 01:03:14;;;;;;;;;36.50;30.50;;;;;;;;5019030;28;51561;-42
2022/01/11 01:05:58;;;;;;;;;36.50;29.25;;;;;;;;5018862;28;51353;-44
2022/01/11 01:08:43;;;;;;;;;31.25;26.25;;;;;;;;5019241;28;51132;-45
2022/01/11 01:11:27;;;;;;;;;37.75;30.00;;;;;;;;5018413;28;51193;-45
2022/01/11 01:14:12;;;;;;;;;38.25;30.25;;;;;;;;5018740;28;51104;-46
2022/01/11 01:16:56;;;;;;;;;30.00;26.75;;;;;;;;5017815;28;51640;-45
2022/01/11 01:19:41;;;;;;;;;34.00;30.00;;;;;;;;5021455;28;51072;-44
2022/01/11 01:22:25;;;;;;;;;37.00;30.50;;;;;;;;5006410;28;51205;-45
2022/01/11 01:25:10;;;;;;;;;38.75;31.00;;;;;;;;5018111;28;51139;-45
2022/01/11 01:27:54;;;;;;;;;41.00;31.25;;;;;;;;5022755;28;51038;-44
2022/01/11 01:30:38;;;;;;;;;28.75;26.25;;;;;;;;5022101;28;51072;-44
2022/01/11 01:33:23;;;;;;;;;34.50;29.50;;;;;;;;5022714;28;51162;-47
2022/01/11 01:36:11;;;;;;;;;32.00;28.50;;;;;;;;5022048;28;51143;-43
2022/01/11 01:38:55;;;;;;;;;35.50;29.00;;;;;;;;5022269;28;51167;-46
2022/01/11 01:41:44;;;;;;;;;34.25;29.75;;;;;;;;5022352;28;51460;-44
2022/01/11 01:44:30;;;;;;;;;35.50;28.75;;;;;;;;5022283;28;51165;-46
2022/01/11 01:47:14;;;;;;;;;35.50;30.00;;;;;;;;5022494;28;51081;-47
2022/01/11 01:49:59;;;;;;;;;33.00;30.00;;;;;;;;5022082;28;51254;-46
2022/01/11 01:52:43;;;;;;;;;39.25;30.50;;;;;;;;5021989;28;51112;-46
2022/01/11 01:55:27;;;;;;;;;37.75;30.50;;;;;;;;5021756;28;51092;-45
2022/01/11 01:58:12;;;;;;;;;32.25;29.00;;;;;;;;5022315;28;51081;-46
2022/01/11 02:01:02;;;;;;;;;40.50;31.50;;;;;;;;5021690;28;51058;-47
2022/01/11 02:03:47;;;;;;;;;35.50;31.50;;;;;;;;5021647;28;51108;-44
2022/01/11 02:06:31;;;;;;;;;34.25;30.25;;;;;;;;5021987;28;51240;-44
2022/01/11 02:09:16;;;;;;;;;38.50;30.25;;;;;;;;5021641;28;51216;-44
2022/01/11 02:12:00;;;;;;;;;38.75;29.75;;;;;;;;5022048;28;51175;-44
2022/01/11 02:14:45;;;;;;;;;37.50;31.00;;;;;;;;5021580;28;51159;-44
2022/01/11 02:17:29;;;;;;;;;38.25;27.75;;;;;;;;5021900;28;51589;-44
2022/01/11 02:20:14;;;;;;;;;37.25;29.75;;;;;;;;5007982;28;51209;-43
2022/01/11 02:22:59;;;;;;;;;41.50;32.00;;;;;;;;5009496;28;51157;-42
2022/01/11 02:25:43;;;;;;;;;37.75;31.00;;;;;;;;5021059;28;51493;-46
2022/01/11 02:28:28;;;;;;;;;41.75;31.00;;;;;;;;5021543;28;51259;-45
2022/01/11 02:31:13;;;;;;;;;37.75;30.25;;;;;;;;5021276;28;51064;-45
2022/01/11 02:33:58;;;;;;;;;38.00;31.25;;;;;;;;5020828;28;51163;-44
2022/01/11 02:36:42;;;;;;;;;32.25;30.25;;;;;;;;5021255;28;51092;-45
2022/01/11 02:39:26;;;;;;;;;41.50;30.25;;;;;;;;5016040;28;51147;-46
2022/01/11 02:42:11;;;;;;;;;35.50;31.75;;;;;;;;5021218;28;51699;-44
2022/01/11 02:44:55;;;;;;;;;34.50;29.00;;;;;;;;5020947;28;51155;-46
2022/01/11 02:47:40;;;;;;;;;40.50;34.50;;;;;;;;5014847;28;51190;-48
2022/01/11 02:50:25;;;;;;;;;34.50;30.50;;;;;;;;5015211;28;51170;-46
2022/01/11 02:53:10;;;;;;;;;40.75;30.00;;;;;;;;5020887;28;51330;-44
2022/01/11 02:55:54;;;;;;;;;40.25;31.75;;;;;;;;5021078;28;51644;-44
2022/01/11 02:58:39;;;;;;;;;33.75;30.50;;;;;;;;5020732;28;51080;-43
2022/01/11 03:01:23;;;;;;;;;38.75;31.50;;;;;;;;5020835;28;50995;-46
2022/01/11 03:04:07;;;;;;;;;43.75;32.75;;;;;;;;5020318;28;51072;-45
2022/01/11 03:06:53;;;;;;;;;44.25;33.25;;;;;;;;5020619;28;51576;-44
2022/01/11 03:09:56;;;;;;;;;45.50;37.25;;;;;;;;5020316;28;51111;-44
2022/01/11 03:12:43;;;;;;;;;45.00;34.50;;;;;;;;5020351;28;51135;-47
2022/01/11 03:15:27;;;;;;;;;50.25;38.75;;;;;;;;5020191;28;50994;-44
2022/01/11 03:18:12;;;;;;;;;56.25;40.50;;;;;;;;5019461;28;51186;-44
2022/01/11 03:20:56;;;;;;;;;51.25;41.25;;;;;;;;5020434;28;51688;-47
2022/01/11 03:23:41;;;;;;;;;48.25;40.00;;;;;;;;5020031;28;51147;-45
2022/01/11 03:26:25;;;;;;;;;52.00;41.75;;;;;;;;5020319;28;51111;-45
2022/01/11 03:29:09;;;;;;;;;49.75;40.25;;;;;;;;5020086;28;50993;-47
2022/01/11 03:31:54;;;;;;;;;53.25;40.75;;;;;;;;5020350;28;51598;-47
2022/01/11 03:34:41;;;;;;;;;49.75;40.00;;;;;;;;5019961;28;51052;-46
2022/01/11 03:37:26;;;;;;;;;49.50;38.50;;;;;;;;5020363;28;51577;-44
2022/01/11 03:40:12;;;;;;;;;49.50;40.25;;;;;;;;5019438;28;51460;-45
2022/01/11 03:42:56;;;;;;;;;57.75;44.50;;;;;;;;5020049;28;51097;-44
2022/01/11 03:45:40;;;;;;;;;51.50;38.75;;;;;;;;5019895;28;51065;-47
2022/01/11 03:48:25;;;;;;;;;56.00;40.75;;;;;;;;5019829;28;51174;-44
2022/01/11 03:51:09;;;;;;;;;53.50;42.25;;;;;;;;5019679;28;51457;-46
2022/01/11 03:54:07;;;;;;;;;52.50;41.75;;;;;;;;5019983;28;51149;-45
2022/01/11 03:56:52;;;;;;;;;58.00;42.25;;;;;;;;5019703;28;51601;-46
2022/01/11 03:59:36;;;;;;;;;51.75;40.50;;;;;;;;5008332;28;51181;-42
2022/01/11 04:02:21;;;;;;;;;54.25;41.00;;;;;;;;4999781;28;51160;-45
2022/01/11 04:05:06;;;;;;;;;55.25;41.75;;;;;;;;4999889;28;51569;-47
2022/01/11 04:07:51;;;;;;;;;53.25;40.75;;;;;;;;5014151;28;51085;-45
2022/01/11 04:10:35;;;;;;;;;49.50;38.75;;;;;;;;5019448;28;51104;-46
2022/01/11 04:13:19;;;;;;;;;54.00;42.00;;;;;;;;5016538;28;51016;-45
2022/01/11 04:16:04;;;;;;;;;53.75;38.50;;;;;;;;4999821;28;51470;-44
2022/01/11 04:18:48;;;;;;;;;56.25;44.25;;;;;;;;5013303;28;51153;-44
2022/01/11 04:21:33;;;;;;;;;59.75;44.75;;;;;;;;5019186;28;51761;-46
2022/01/11 04:24:17;;;;;;;;;55.00;41.75;;;;;;;;5019078;28;51167;-47
2022/01/11 04:27:02;;;;;;;;;56.50;44.00;;;;;;;;5019922;28;51070;-43
2022/01/11 04:29:46;;;;;;;;;56.50;44.25;;;;;;;;5018864;28;51063;-45
2022/01/11 04:32:31;;;;;;;;;53.75;44.00;;;;;;;;5019209;28;52485;-43
2022/01/11 04:35:16;;;;;;;;;57.25;45.75;;;;;;;;5019409;28;51185;-45
2022/01/11 04:38:00;;;;;;;;;58.75;44.50;;;;;;;;5019438;28;51093;-43
2022/01/11 04:40:45;;;;;;;;;61.00;47.50;;;;;;;;5016621;28;51123;-45
2022/01/11 04:43:30;;;;;;;;;59.00;47.00;;;;;;;;5007695;28;51220;-46
2022/01/11 04:46:18;;;;;;;;;62.75;47.75;;;;;;;;5019175;28;50997;-47
2022/01/11 04:49:02;;;;;;;;;64.50;48.00;;;;;;;;5019247;28;51192;-47
2022/01/11 04:51:47;;;;;;;;;66.25;49.25;;;;;;;;5019089;28;51156;-46
2022/01/11 04:54:31;;;;;;;;;62.25;46.75;;;;;;;;5022896;28;51517;-47
2022/01/11 04:57:15;;;;;;;;;61.25;48.50;;;;;;;;5022859;28;51147;-48
2022/01/11 05:00:00;;;;;;;;;62.50;49.00;;;;;;;;5023328;28;51041;-45
2022/01/11 05:02:44;;;;;;;;;62.75;50.00;;;;;;;;5020360;28;51081;-46
2022/01/11 05:05:29;;;;;;;;;63.50;48.00;;;;;;;;5022682;28;51105;-45
2022/01/11 05:08:14;;;;;;;;;64.50;49.50;;;;;;;;5022988;28;51066;-45
2022/01/11 05:10:58;;;;;;;;;62.75;46.50;;;;;;;;5023055;28;51057;-43
2022/01/11 05:13:42;;;;;;;;;67.25;52.25;;;;;;;;5022291;28;51168;-46
2022/01/11 05:16:27;;;;;;;;;60.75;45.50;;;;;;;;5023219;28;51136;-43
2022/01/11 05:19:12;;;;;;;;;66.75;51.75;;;;;;;;5022820;28;51489;-47
2022/01/11 05:21:56;;;;;;;;;66.75;50.75;;;;;;;;5022399;28;51033;-47
2022/01/11 05:24:41;;;;;;;;;66.00;50.75;;;;;;;;5022851;28;51137;-44
2022/01/11 05:27:27;;;;;;;;;65.00;51.50;;;;;;;;5022910;28;51207;-43
2022/01/11 05:30:12;;;;;;;;;69.50;52.75;;;;;;;;5022562;28;51456;-44
2022/01/11 05:32:57;;;;;;;;;64.25;50.00;;;;;;;;5022280;28;51068;-44
2022/01/11 05:35:41;;;;;;;;;68.50;53.50;;;;;;;;5022613;28;51595;-46
2022/01/11 05:38:25;;;;;;;;;68.00;53.75;;;;;;;;5022460;28;51144;-43
2022/01/11 05:41:10;;;;;;;;;66.50;53.00;;;;;;;;5022544;28;51069;-46
2022/01/11 05:43:55;;;;;;;;;62.25;51.50;;;;;;;;5021884;28;51568;-46
2022/01/11 05:46:39;;;;;;;;;73.75;59.00;;;;;;;;5022344;28;51140;-44
2022/01/11 05:49:23;;;;;;;;;67.50;52.75;;;;;;;;5021985;28;51589;-44
2022/01/11 05:52:08;;;;;;;;;67.00;51.50;;;;;;;;5019744;28;51091;-44
2022/01/11 05:54:52;;;;;;;;;65.25;50.75;;;;;;;;5003655;28;51520;-45
2022/01/11 05:57:37;;;;;;;;;64.00;51.00;;;;;;;;5017889;28;51108;-45
2022/01/11 06:00:21;;;;;;;;;66.25;51.25;;;;;;;;5021668;28;51652;-45
2022/01/11 06:03:06;;;;;;;;;79.00;72.25;;;;;;;;5021684;28;51199;-43
2022/01/11 06:05:50;;;;;;;;;72.25;52.25;;;;;;;;5020988;28;51050;-45
2022/01/11 06:08:34;;;;;;;;;66.50;52.25;;;;;;;;5021817;28;51079;-44
2022/01/11 06:11:25;;;;;;;;;69.25;53.00;;;;;;;;5021751;28;51045;-46
2022/01/11 06:14:10;;;;;;;;;66.75;51.00;;;;;;;;5021664;28;51043;-46
2022/01/11 06:16:54;;;;;;;;;69.50;51.75;;;;;;;;5020462;28;51026;-48
2022/01/11 06:19:38;;;;;;;;;66.00;50.75;;;;;;;;5021676;28;51145;-44
2022/01/11 06:22:24;;;;;;;;;69.25;53.50;;;;;;;;5021320;28;51061;-44
2022/01/11 06:25:08;;;;;;;;;65.25;49.75;;;;;;;;5021406;28;51060;-45
2022/01/11 06:27:52;;;;;;;;;66.25;51.75;;;;;;;;5020320;28;51152;-42
2022/01/11 06:30:37;;;;;;;;;64.25;50.75;;;;;;;;5016625;28;51006;-45
2022/01/11 06:33:21;;;;;;;;;68.50;51.25;;;;;;;;5020989;28;51497;-45
2022/01/11 06:36:10;;;;;;;;;73.75;57.25;;;;;;;;5021177;28;51557;-44
2022/01/11 06:38:54;;;;;;;;;75.00;66.50;;;;;;;;5021208;28;51299;-48
2022/01/11 06:41:38;;;;;;;;;97.75;86.00;;;;;;;;5021409;28;51087;-45
2022/01/11 06:44:23;;;;;;;;;80.00;67.50;;;;;;;;5020548;28;51084;-46
2022/01/11 06:47:07;;;;;;;;;79.75;70.75;;;;;;;;5020739;28;51186;-43
2022/01/11 06:49:52;;;;;;;;;75.25;62.75;;;;;;;;5021297;28;51367;-45
2022/01/11 06:52:36;;;;;;;;;85.00;79.00;;;;;;;;5020511;28;51402;-46
2022/01/11 06:55:20;;;;;;;;;79.25;73.50;;;;;;;;5037435;28;51599;-44
2022/01/11 06:58:05;;;;;;;;;75.50;64.50;;;;;;;;5040734;28;51544;-50
2022/01/11 07:00:49;;;;;;;;;75.50;61.00;;;;;;;;5040948;28;51425;-45
2022/01/11 07:03:34;;;;;;;;;73.50;63.25;;;;;;;;5040960;28;51458;-42
2022/01/11 07:06:18;;;;;;;;;72.50;58.50;;;;;;;;5040623;28;51089;-42
2022/01/11 07:09:03;;;;;;;;;74.50;59.25;;;;;;;;5040657;28;51119;-45
2022/01/11 07:11:47;;;;;;;;;73.75;57.75;;;;;;;;5001874;28;51075;-45
2022/01/11 07:14:32;;;;;;;;;73.50;58.50;;;;;;;;5018228;28;51563;-48
2022/01/11 07:17:16;;;;;;;;;72.00;52.75;;;;;;;;5018889;28;51188;-45
2022/01/11 07:20:01;;;;;;;;;69.50;53.25;;;;;;;;4994611;27;51128;-43
2022/01/11 07:22:44;;;;;;;;;71.00;56.50;;;;;;;;5032564;28;51100;-43
2022/01/11 07:25:30;;;;;;;;;57.25;45.25;;;;;;;;5040216;28;51125;-44
2022/01/11 07:28:15;;;;;;;;;73.50;59.00;;;;;;;;5040489;28;51200;-44
2022/01/11 07:31:00;;;;;;;;;80.75;71.50;;;;;;;;5040535;28;51061;-43
2022/01/11 07:33:44;;;;;;;;;81.50;73.25;;;;;;;;5040394;28;51064;-45
2022/01/11 07:36:28;;;;;;;;;74.25;56.25;;;;;;;;5039595;28;51138;-45
2022/01/11 07:39:13;;;;;;;;;72.00;55.75;;;;;;;;4998664;28;51694;-46
2022/01/11 07:41:57;;;;;;;;;62.00;46.25;;;;;;;;5019335;28;51096;-41
2022/01/11 07:44:43;;;;;;;;;69.25;54.00;;;;;;;;5019989;28;51061;-45
2022/01/11 07:47:27;;;;;;;;;70.50;53.75;;;;;;;;5019511;28;51282;-44
2022/01/11 07:50:12;;;;;;;;;60.75;45.25;;;;;;;;5019273;28;51410;-44
2022/01/11 07:52:59;;;;;;;;;72.75;62.50;;;;;;;;5019962;28;51099;-45
2022/01/11 07:55:43;;;;;;;;;70.00;57.50;;;;;;;;5019710;28;51187;-44
2022/01/11 07:58:27;;;;;;;;;66.50;52.25;;;;;;;;5019407;28;51013;-44
2022/01/11 08:01:12;;;;;;;;;72.00;55.50;;;;;;;;5019545;28;51039;-48
2022/01/11 08:03:56;;;;;;;;;72.00;61.00;;;;;;;;5019685;28;51184;-43
2022/01/11 08:06:41;;;;;;;;;75.75;61.25;;;;;;;;5018817;28;51093;-49
2022/01/11 08:09:25;;;;;;;;;71.75;56.50;;;;;;;;5019752;28;51004;-46
2022/01/11 08:12:09;;;;;;;;;71.00;59.00;;;;;;;;5019386;28;51567;-45
2022/01/11 08:14:54;;;;;;;;;74.25;58.75;;;;;;;;5019028;28;50947;-46
2022/01/11 08:17:39;;;;;;;;;68.00;54.50;;;;;;;;5018502;28;51223;-44
2022/01/11 08:20:23;;;;;;;;;71.75;58.00;;;;;;;;5019611;28;50989;-46
2022/01/11 08:23:08;;;;;;;;;73.00;58.00;;;;;;;;5019098;28;51489;-47
2022/01/11 08:25:52;;;;;;;;;70.25;54.25;;;;;;;;5018997;28;51090;-46
2022/01/11 08:28:36;;;;;;;;;67.50;53.00;;;;;;;;5019024;28;51638;-43
2022/01/11 08:31:21;;;;;;;;;67.00;52.75;;;;;;;;5019070;28;51177;-45
2022/01/11 08:34:11;;;;;;;;;71.25;58.75;;;;;;;;5019132;28;51101;-47
2022/01/11 08:36:55;;;;;;;;;67.25;55.25;;;;;;;;5018682;28;51408;-45
2022/01/11 08:39:42;;;;;;;;;68.75;55.00;;;;;;;;5018244;28;51033;-44
2022/01/11 08:42:29;;;;;;;;;70.25;58.25;;;;;;;;5018081;28;51048;-45
2022/01/11 08:45:13;;;;;;;;;65.75;50.50;;;;;;;;5018555;28;51187;-46
2022/01/11 08:47:58;;;;;;;;;69.75;58.00;;;;;;;;5013102;28;51149;-47
2022/01/11 08:51:05;;;;;;;;;74.50;69.00;;;;;;;;5018182;28;51108;-45
2022/01/11 08:53:50;;;;;;;;;69.50;53.00;;;;;;;;5018807;28;51031;-49
2022/01/11 08:56:34;;;;;;;;;68.75;56.25;;;;;;;;5016355;28;51125;-44
2022/01/11 08:59:19;;;;;;;;;122.25;114.25;;;;;;;;5018477;28;51081;-48
2022/01/11 09:02:04;;;;;;;;;66.50;52.75;;;;;;;;5018422;28;51185;-45
2022/01/11 09:04:48;;;;;;;;;69.00;57.25;;;;;;;;5019019;28;50992;-47
2022/01/11 09:07:33;;;;;;;;;70.50;58.75;;;;;;;;5017995;28;51225;-46
2022/01/11 09:10:17;;;;;;;;;68.75;53.75;;;;;;;;5018651;28;51205;-44
2022/01/11 09:13:02;;;;;;;;;60.25;44.75;;;;;;;;5016653;28;51109;-46
2022/01/11 09:15:46;;;;;;;;;68.00;55.00;;;;;;;;5018870;28;51150;-44
2022/01/11 09:18:31;;;;;;;;;70.00;60.25;;;;;;;;5018301;28;51500;-46
2022/01/11 09:21:16;;;;;;;;;73.25;64.00;;;;;;;;5017916;28;51191;-44
2022/01/11 09:24:00;;;;;;;;;73.00;63.25;;;;;;;;5018521;28;51174;-49
2022/01/11 09:26:45;;;;;;;;;70.75;61.75;;;;;;;;5017033;28;51542;-46
2022/01/11 09:29:31;;;;;;;;;69.00;59.50;;;;;;;;5017925;28;51149;-46
2022/01/11 09:32:16;;;;;;;;;69.50;60.00;;;;;;;;5010490;28;51139;-43
2022/01/11 09:35:01;;;;;;;;;73.50;68.00;;;;;;;;5018458;28;51291;-45
2022/01/11 09:37:46;;;;;;;;;70.75;64.50;;;;;;;;5017926;28;51392;-47
2022/01/11 09:40:30;;;;;;;;;72.25;65.00;;;;;;;;5018357;28;51116;-44
2022/01/11 09:43:14;;;;;;;;;76.00;67.25;;;;;;;;5022055;28;51437;-45
2022/01/11 09:45:59;;;;;;;;;77.75;65.75;;;;;;;;5021622;28;51972;-45
2022/01/11 09:48:45;;;;;;;;;69.25;59.25;;;;;;;;5021326;28;51231;-47
2022/01/11 09:51:34;;;;;;;;;69.25;62.75;;;;;;;;5016875;28;51544;-44
2022/01/11 09:54:21;;;;;;;;;68.25;59.25;;;;;;;;5021378;28;51221;-45
2022/01/11 09:57:06;;;;;;;;;59.25;47.00;;;;;;;;5020809;28;51085;-45
2022/01/11 09:59:50;;;;;;;;;62.50;48.50;;;;;;;;5021919;28;50994;-46
2022/01/11 10:02:34;;;;;;;;;65.25;51.25;;;;;;;;5021073;28;51352;-46
2022/01/11 10:05:19;;;;;;;;;61.75;46.75;;;;;;;;5021281;28;51194;-43
2022/01/11 10:08:22;;;;;;;;;59.25;45.75;;;;;;;;5021178;28;52260;-49
2022/01/11 10:11:06;;;;;;;;;59.00;43.50;;;;;;;;5021020;28;51404;-48
2022/01/11 10:13:50;;;;;;;;;49.75;40.75;;;;;;;;5020208;28;51309;-46
2022/01/11 10:16:35;;;;;;;;;52.75;40.00;;;;;;;;5020667;28;51187;-45
2022/01/11 10:19:24;;;;;;;;;48.00;35.00;;;;;;;;5021247;28;51252;-44
2022/01/11 10:22:09;;;;;;;;;51.00;40.00;;;;;;;;5020492;28;51216;-45
2022/01/11 10:24:54;;;;;;;;;54.00;42.00;;;;;;;;5021640;28;51091;-46
2022/01/11 10:27:39;;;;;;;;;52.75;41.50;;;;;;;;5020574;28;51044;-46
2022/01/11 10:30:25;;;;;;;;;47.25;37.25;;;;;;;;5016887;28;51119;-44
2022/01/11 10:33:09;;;;;;;;;46.00;37.25;;;;;;;;5021021;28;51084;-47
2022/01/11 10:35:54;;;;;;;;;43.25;33.00;;;;;;;;5020849;28;51045;-49
2022/01/11 10:38:38;;;;;;;;;41.75;30.75;;;;;;;;5020356;28;51156;-47
2022/01/11 10:41:44;;;;;;;;;37.50;30.75;;;;;;;;5020557;28;52938;-46
2022/01/11 10:44:42;;;;;;;;;33.50;28.25;;;;;;;;5019804;28;51712;-44
2022/01/11 10:47:28;;;;;;;;;31.25;27.25;;;;;;;;5020185;28;51190;-49
2022/01/11 10:50:14;;;;;;;;;37.75;29.75;;;;;;;;5020885;28;51143;-46
2022/01/11 10:53:00;;;;;;;;;36.75;29.25;;;;;;;;5020193;28;51123;-46
2022/01/11 10:55:47;;;;;;;;;38.50;30.75;;;;;;;;5020238;28;51126;-46
2022/01/11 10:58:33;;;;;;;;;40.50;31.50;;;;;;;;5020216;28;51108;-47
2022/01/11 11:01:17;;;;;;;;;32.50;28.50;;;;;;;;5020014;28;51227;-47
2022/01/11 11:04:02;;;;;;;;;33.75;27.75;;;;;;;;5020285;28;51104;-47
2022/01/11 11:06:46;;;;;;;;;32.75;25.75;;;;;;;;4992593;28;51172;-47
2022/01/11 11:09:42;;;;;;;;;39.50;31.25;;;;;;;;5020066;28;51176;-47
2022/01/11 11:12:27;;;;;;;;;21.25;18.25;;;;;;;;5019379;28;51120;-46
2022/01/11 11:15:11;;;;;;;;;33.00;27.50;;;;;;;;5019904;28;51093;-47
2022/01/11 11:17:56;;;;;;;;;30.25;26.25;;;;;;;;5019555;28;51326;-46
2022/01/11 11:20:40;;;;;;;;;39.25;30.00;;;;;;;;5019808;28;51093;-45
2022/01/11 11:23:24;;;;;;;;;39.25;32.25;;;;;;;;5020174;28;51191;-46
2022/01/11 11:26:09;;;;;;;;;37.00;29.50;;;;;;;;5018864;28;51152;-45
2022/01/11 11:28:54;;;;;;;;;36.75;28.00;;;;;;;;5018706;28;51119;-44
2022/01/11 11:31:38;;;;;;;;;34.00;28.50;;;;;;;;5018716;28;51540;-47
2022/01/11 11:34:23;;;;;;;;;37.75;28.50;;;;;;;;5017612;28;51068;-44
2022/01/11 11:37:08;;;;;;;;;36.50;25.50;;;;;;;;5018489;28;51190;-47
2022/01/11 11:39:57;;;;;;;;;36.50;31.25;;;;;;;;5018615;28;51421;-45
2022/01/11 11:42:42;;;;;;;;;28.50;26.25;;;;;;;;5018970;28;51088;-49
2022/01/11 11:45:30;;;;;;;;;33.00;27.25;;;;;;;;5019132;28;51155;-48
2022/01/11 11:48:16;;;;;;;;;33.50;27.50;;;;;;;;5018694;28;51144;-48
2022/01/11 11:51:06;;;;;;;;;30.75;27.25;;;;;;;;5018010;28;51148;-44
2022/01/11 11:53:50;;;;;;;;;40.00;30.25;;;;;;;;5018185;28;51156;-46
2022/01/11 11:56:34;;;;;;;;;37.25;28.00;;;;;;;;5016505;28;51472;-47
2022/01/11 11:59:19;;;;;;;;;33.50;28.25;;;;;;;;5017828;28;51647;-46
2022/01/11 12:02:03;;;;;;;;;37.50;29.00;;;;;;;;5017269;28;51231;-48
2022/01/11 12:04:52;;;;;;;;;34.00;23.50;;;;;;;;5013774;28;51112;-46
2022/01/11 12:07:45;;;;;;;;;33.75;29.50;;;;;;;;5025542;27;51357;-45
2022/01/11 12:10:48;;;;;;;;;32.75;28.25;;;;;;;;5035067;28;51192;-47
2022/01/11 12:13:45;;;;;;;;;36.75;30.50;;;;;;;;5036184;28;52141;-47
2022/01/11 12:16:36;;;;;;;;;38.25;31.00;;;;;;;;5036596;28;51233;-48
2022/01/11 12:19:40;;;;;;;;;35.50;30.50;;;;;;;;5039257;28;51060;-46
2022/01/11 12:22:30;;;;;;;;;34.00;28.50;;;;;;;;5038263;28;51167;-45
2022/01/11 12:25:32;;;;;;;;;32.75;29.25;;;;;;;;5037269;28;51077;-45
2022/01/11 12:28:18;;;;;;;;;28.75;25.00;;;;;;;;5036395;28;51116;-45
2022/01/11 12:31:21;;;;;;;;;36.00;28.50;;;;;;;;5038782;28;51144;-48
2022/01/11 12:34:10;;;;;;;;;32.25;29.75;;;;;;;;5037925;28;51460;-45
2022/01/11 12:36:55;;;;;;;;;35.75;29.75;;;;;;;;5038050;28;51204;-44
2022/01/11 12:39:57;;;;;;;;;36.75;31.25;;;;;;;;5038335;28;51111;-46
2022/01/11 12:43:01;;;;;;;;;35.75;31.50;;;;;;;;5038460;28;51115;-45
2022/01/11 12:46:05;;;;;;;;;33.00;29.50;;;;;;;;5036839;28;51672;-45
2022/01/11 12:48:51;;;;;;;;;42.50;31.50;;;;;;;;5036278;28;51501;-44
2022/01/11 12:51:41;;;;;;;;;30.75;29.00;;;;;;;;5038402;28;51223;-43
2022/01/11 12:54:28;;;;;;;;;34.75;26.75;;;;;;;;5036144;28;51240;-45
2022/01/11 12:57:14;;;;;;;;;34.50;25.75;;;;;;;;5038918;28;51092;-45
2022/01/11 13:00:03;;;;;;;;;32.75;29.25;;;;;;;;5038894;28;51166;-45
2022/01/11 13:02:48;;;;;;;;;32.50;30.25;;;;;;;;5038543;28;51171;-49
2022/01/11 13:05:35;;;;;;;;;40.00;32.75;;;;;;;;5039059;28;51067;-43
2022/01/11 13:08:27;;;;;;;;;39.50;29.75;;;;;;;;5038643;28;51201;-49
2022/01/11 13:11:14;;;;;;;;;27.50;17.25;;;;;;;;5030312;28;51170;-43
2022/01/11 13:14:16;;;;;;;;;35.75;29.00;;;;;;;;5037347;28;51115;-47
2022/01/11 13:17:05;;;;;;;;;39.75;32.25;;;;;;;;5041582;28;51537;-48
2022/01/11 13:20:09;;;;;;;;;33.75;29.50;;;;;;;;5039207;28;51016;-45
2022/01/11 13:26:02;;;;;;;;;32.75;29.50;;;;;;;;5042499;28;51375;-43
2022/01/11 13:28:56;;;;;;;;;37.50;29.75;;;;;;;;5042545;28;51172;-45
2022/01/11 13:31:40;;;;;;;;;35.25;29.50;;;;;;;;5038877;28;51136;-45
2022/01/11 13:34:34;;;;;;;;;32.75;26.50;;;;;;;;5039348;28;51186;-48
2022/01/11 13:37:32;;;;;;;;;44.50;32.25;;;;;;;;5041929;28;51182;-46
2022/01/11 13:40:25;;;;;;;;;42.00;30.00;;;;;;;;5040963;28;51128;-45
2022/01/11 13:43:13;;;;;;;;;35.00;27.25;;;;;;;;5040182;28;51653;-45
2022/01/11 13:46:02;;;;;;;;;36.00;30.25;;;;;;;;5040848;28;51066;-43
2022/01/11 13:48:49;;;;;;;;;33.50;29.00;;;;;;;;5042520;28;51155;-47
2022/01/11 13:51:34;;;;;;;;;34.50;31.50;;;;;;;;5042150;28;51136;-45
2022/01/11 13:54:19;;;;;;;;;37.25;32.00;;;;;;;;5042227;28;51177;-43
2022/01/11 13:57:11;;;;;;;;;40.00;30.50;;;;;;;;5039440;28;51536;-44
2022/01/11 13:59:57;;;;;;;;;39.75;28.50;;;;;;;;5039665;28;51498;-48
2022/01/11 14:02:43;;;;;;;;;36.75;27.75;;;;;;;;5041989;28;50986;-45
2022/01/11 14:05:29;;;;;;;;;33.50;25.25;;;;;;;;5040700;28;51217;-47
2022/01/11 14:08:27;;;;;;;;;45.00;33.25;;;;;;;;5041664;28;51119;-45
2022/01/11 14:11:14;;;;;;;;;35.25;29.00;;;;;;;;5041096;28;51142;-44
2022/01/11 14:14:11;;;;;;;;;40.50;30.00;;;;;;;;5041813;28;51190;-45
2022/01/11 14:16:58;;;;;;;;;37.00;29.50;;;;;;;;5039192;28;51159;-45
2022/01/11 14:20:08;;;;;;;;;39.75;32.25;;;;;;;;5041598;28;51223;-44
2022/01/11 14:22:54;;;;;;;;;33.50;28.75;;;;;;;;5041530;28;51203;-43
2022/01/11 14:25:50;;;;;;;;;43.25;34.00;;;;;;;;5040835;28;51193;-48
2022/01/11 14:28:50;;;;;;;;;37.50;31.75;;;;;;;;5036091;28;51208;-43
2022/01/11 14:32:10;;;;;;;;;39.00;31.50;;;;;;;;5039350;28;51146;-45
2022/01/11 14:35:07;;;;;;;;;37.50;30.25;;;;;;;;4977602;28;51689;-45
2022/01/11 14:38:05;;;;;;;;;41.25;33.50;;;;;;;;4978600;28;51246;-48
2022/01/11 14:41:08;;;;;;;;;35.75;31.00;;;;;;;;4977011;28;51274;-46
2022/01/11 14:43:59;;;;;;;;;39.00;32.50;;;;;;;;4978978;28;51195;-45
2022/01/11 14:46:52;;;;;;;;;39.00;30.75;;;;;;;;4978580;28;51119;-44
2022/01/11 14:49:39;;;;;;;;;34.75;27.50;;;;;;;;5018336;28;51686;-44
2022/01/11 14:52:25;;;;;;;;;46.00;31.25;;;;;;;;5040369;28;51241;-47
2022/01/11 14:55:13;;;;;;;;;39.00;30.25;;;;;;;;5040288;28;51127;-45
2022/01/11 14:58:03;;;;;;;;;34.50;28.25;;;;;;;;5040219;28;51126;-46
2022/01/11 15:00:55;;;;;;;;;33.50;25.50;;;;;;;;5023520;28;51551;-45
2022/01/11 15:03:56;;;;;;;;;40.75;31.25;;;;;;;;5040110;28;51292;-45
2022/01/11 15:06:46;;;;;;;;;36.50;29.75;;;;;;;;5040595;28;51079;-45
2022/01/11 15:09:45;;;;;;;;;37.25;30.00;;;;;;;;5039570;28;51118;-45
2022/01/11 15:12:32;;;;;;;;;36.00;31.75;;;;;;;;5038631;28;51267;-44
2022/01/11 15:15:18;;;;;;;;;40.75;30.50;;;;;;;;5040037;28;51659;-45
2022/01/11 15:18:09;;;;;;;;;37.00;31.75;;;;;;;;5039766;28;51191;-43
2022/01/11 15:20:53;;;;;;;;;41.75;29.75;;;;;;;;5040018;28;51154;-47
2022/01/11 15:23:39;;;;;;;;;39.25;31.75;;;;;;;;5039754;28;51182;-43
2022/01/11 15:26:27;;;;;;;;;39.00;31.75;;;;;;;;5040037;28;51045;-45
2022/01/11 15:29:18;;;;;;;;;41.75;32.50;;;;;;;;5039498;28;51235;-45
2022/01/11 15:32:37;;;;;;;;;44.75;30.75;;;;;;;;5039036;28;51126;-46
2022/01/11 15:35:29;;;;;;;;;41.50;34.50;;;;;;;;5039564;28;51057;-43
2022/01/11 15:38:42;;;;;;;;;35.00;30.25;;;;;;;;5038819;28;51202;-45
2022/01/11 15:41:31;;;;;;;;;41.50;33.75;;;;;;;;5039624;28;51640;-45
2022/01/11 15:44:16;;;;;;;;;43.50;31.75;;;;;;;;5039720;28;51168;-45
2022/01/11 15:47:02;;;;;;;;;34.00;26.00;;;;;;;;5038969;28;51404;-46
2022/01/11 15:49:48;;;;;;;;;34.00;29.00;;;;;;;;5039130;28;51095;-48
2022/01/11 15:52:34;;;;;;;;;33.25;29.00;;;;;;;;5039667;28;51048;-47
2022/01/11 15:55:24;;;;;;;;;37.75;29.75;;;;;;;;5038423;28;51139;-44
2022/01/11 15:58:10;;;;;;;;;37.00;30.00;;;;;;;;5027886;28;51208;-48
2022/01/11 16:00:55;;;;;;;;;41.25;33.00;;;;;;;;5038226;28;51476;-43
2022/01/11 16:03:44;;;;;;;;;45.25;32.75;;;;;;;;5037677;28;51131;-44
2022/01/11 16:06:31;;;;;;;;;41.00;33.25;;;;;;;;5037888;28;51030;-44
2022/01/11 16:09:33;;;;;;;;;34.75;29.75;;;;;;;;5039284;28;51267;-44
2022/01/11 16:12:20;;;;;;;;;42.25;33.75;;;;;;;;5038655;28;51488;-44
2022/01/11 16:15:06;;;;;;;;;46.00;32.50;;;;;;;;5039029;28;51117;-43